sensor_id;sensor_type;location;lat;lon;timestamp;P1;durP1;ratioP1;P2;durP2;ratioP2
43487;SDS011;29078;41.932;25.554;2023-02-26T00:01:23;21.83;;;9.07;;
43487;SDS011;29078;41.932;25.554;2023-02-26T00:03:50;23.05;;;10.02;;
43487;SDS011;29078;41.932;25.554;2023-02-26T00:06:16;21.40;;;10.20;;
43487;SDS011;29078;41.932;25.554;2023-02-26T00:08:43;23.50;;;8.70;;
43487;SDS011;29078;41.932;25.554;2023-02-26T00:11:09;22.35;;;8.98;;
43487;SDS011;29078;41.932;25.554;2023-02-26T00:13:36;28.55;;;9.77;;
43487;SDS011;29078;41.932;25.554;2023-02-26T00:16:03;24.50;;;8.73;;
43487;SDS011;29078;41.932;25.554;2023-02-26T00:18:36;25.55;;;9.15;;
43487;SDS011;29078;41.932;25.554;2023-02-26T00:21:02;19.35;;;8.40;;
43487;SDS011;29078;41.932;25.554;2023-02-26T00:23:27;24.30;;;8.52;;
43487;SDS011;29078;41.932;25.554;2023-02-26T00:25:53;28.25;;;9.52;;
43487;SDS011;29078;41.932;25.554;2023-02-26T00:28:18;23.05;;;8.77;;
43487;SDS011;29078;41.932;25.554;2023-02-26T00:30:44;23.55;;;9.43;;
43487;SDS011;29078;41.932;25.554;2023-02-26T00:33:10;23.65;;;9.43;;
43487;SDS011;29078;41.932;25.554;2023-02-26T00:35:35;25.55;;;9.75;;
43487;SDS011;29078;41.932;25.554;2023-02-26T00:38:05;20.35;;;8.65;;
43487;SDS011;29078;41.932;25.554;2023-02-26T00:40:34;26.02;;;9.43;;
43487;SDS011;29078;41.932;25.554;2023-02-26T00:43:04;20.20;;;7.97;;
43487;SDS011;29078;41.932;25.554;2023-02-26T00:45:31;23.05;;;8.65;;
43487;SDS011;29078;41.932;25.554;2023-02-26T00:51:15;19.48;;;7.60;;
43487;SDS011;29078;41.932;25.554;2023-02-26T00:56:23;19.90;;;8.18;;
43487;SDS011;29078;41.932;25.554;2023-02-26T00:58:48;24.50;;;8.90;;
43487;SDS011;29078;41.932;25.554;2023-02-26T01:01:14;24.45;;;8.40;;
43487;SDS011;29078;41.932;25.554;2023-02-26T01:03:39;26.00;;;8.65;;
43487;SDS011;29078;41.932;25.554;2023-02-26T01:06:09;18.90;;;8.52;;
43487;SDS011;29078;41.932;25.554;2023-02-26T01:08:40;23.67;;;8.80;;
43487;SDS011;29078;41.932;25.554;2023-02-26T01:11:14;25.95;;;8.57;;
43487;SDS011;29078;41.932;25.554;2023-02-26T01:13:40;20.15;;;8.30;;
43487;SDS011;29078;41.932;25.554;2023-02-26T01:16:07;23.58;;;8.32;;
43487;SDS011;29078;41.932;25.554;2023-02-26T01:18:47;21.23;;;7.53;;
43487;SDS011;29078;41.932;25.554;2023-02-26T01:21:20;23.10;;;8.05;;
43487;SDS011;29078;41.932;25.554;2023-02-26T01:23:52;18.38;;;7.18;;
43487;SDS011;29078;41.932;25.554;2023-02-26T01:26:21;21.63;;;8.38;;
43487;SDS011;29078;41.932;25.554;2023-02-26T01:28:50;22.35;;;8.45;;
43487;SDS011;29078;41.932;25.554;2023-02-26T01:31:25;22.95;;;9.18;;
43487;SDS011;29078;41.932;25.554;2023-02-26T01:34:07;24.73;;;8.07;;
43487;SDS011;29078;41.932;25.554;2023-02-26T01:36:43;20.48;;;8.30;;
43487;SDS011;29078;41.932;25.554;2023-02-26T01:39:27;19.35;;;7.53;;
43487;SDS011;29078;41.932;25.554;2023-02-26T01:42:04;17.50;;;8.00;;
43487;SDS011;29078;41.932;25.554;2023-02-26T01:45:01;30.00;;;8.27;;
43487;SDS011;29078;41.932;25.554;2023-02-26T01:47:32;25.05;;;8.55;;
43487;SDS011;29078;41.932;25.554;2023-02-26T01:50:07;18.63;;;7.55;;
43487;SDS011;29078;41.932;25.554;2023-02-26T01:55:11;20.15;;;8.13;;
43487;SDS011;29078;41.932;25.554;2023-02-26T01:57:38;25.35;;;8.00;;
43487;SDS011;29078;41.932;25.554;2023-02-26T02:00:03;19.88;;;7.70;;
43487;SDS011;29078;41.932;25.554;2023-02-26T02:02:29;16.45;;;7.72;;
43487;SDS011;29078;41.932;25.554;2023-02-26T02:04:56;19.40;;;8.13;;
43487;SDS011;29078;41.932;25.554;2023-02-26T02:07:26;18.35;;;7.53;;
43487;SDS011;29078;41.932;25.554;2023-02-26T02:09:51;21.55;;;8.63;;
43487;SDS011;29078;41.932;25.554;2023-02-26T02:15:15;25.90;;;8.98;;
43487;SDS011;29078;41.932;25.554;2023-02-26T02:21:37;23.52;;;7.53;;
43487;SDS011;29078;41.932;25.554;2023-02-26T02:32:07;19.83;;;7.82;;
43487;SDS011;29078;41.932;25.554;2023-02-26T02:37:07;18.25;;;7.57;;
43487;SDS011;29078;41.932;25.554;2023-02-26T02:39:52;23.77;;;7.93;;
43487;SDS011;29078;41.932;25.554;2023-02-26T02:45:18;15.40;;;6.43;;
43487;SDS011;29078;41.932;25.554;2023-02-26T02:47:52;17.52;;;7.28;;
43487;SDS011;29078;41.932;25.554;2023-02-26T02:50:29;15.75;;;6.45;;
43487;SDS011;29078;41.932;25.554;2023-02-26T02:53:00;17.98;;;7.78;;
43487;SDS011;29078;41.932;25.554;2023-02-26T02:55:39;18.35;;;7.88;;
43487;SDS011;29078;41.932;25.554;2023-02-26T02:58:12;18.48;;;7.28;;
43487;SDS011;29078;41.932;25.554;2023-02-26T03:00:42;16.67;;;7.18;;
43487;SDS011;29078;41.932;25.554;2023-02-26T03:06:05;18.40;;;7.60;;
43487;SDS011;29078;41.932;25.554;2023-02-26T03:08:33;25.13;;;7.15;;
43487;SDS011;29078;41.932;25.554;2023-02-26T03:11:01;17.13;;;6.97;;
43487;SDS011;29078;41.932;25.554;2023-02-26T03:13:26;15.18;;;6.40;;
43487;SDS011;29078;41.932;25.554;2023-02-26T03:27:24;16.80;;;7.47;;
43487;SDS011;29078;41.932;25.554;2023-02-26T03:41:13;14.77;;;6.60;;
43487;SDS011;29078;41.932;25.554;2023-02-26T03:43:44;14.43;;;5.47;;
43487;SDS011;29078;41.932;25.554;2023-02-26T03:46:20;22.88;;;7.20;;
43487;SDS011;29078;41.932;25.554;2023-02-26T03:48:49;20.58;;;7.50;;
43487;SDS011;29078;41.932;25.554;2023-02-26T03:51:15;14.55;;;6.10;;
43487;SDS011;29078;41.932;25.554;2023-02-26T03:54:06;18.85;;;7.13;;
43487;SDS011;29078;41.932;25.554;2023-02-26T03:56:39;16.90;;;6.88;;
43487;SDS011;29078;41.932;25.554;2023-02-26T03:59:07;16.73;;;7.45;;
43487;SDS011;29078;41.932;25.554;2023-02-26T04:01:45;18.88;;;7.35;;
43487;SDS011;29078;41.932;25.554;2023-02-26T04:06:47;15.20;;;7.65;;
43487;SDS011;29078;41.932;25.554;2023-02-26T04:09:13;16.00;;;7.28;;
43487;SDS011;29078;41.932;25.554;2023-02-26T04:11:40;16.42;;;6.70;;
43487;SDS011;29078;41.932;25.554;2023-02-26T04:14:07;16.77;;;7.05;;
43487;SDS011;29078;41.932;25.554;2023-02-26T04:16:32;15.57;;;6.93;;
43487;SDS011;29078;41.932;25.554;2023-02-26T04:18:58;12.70;;;6.78;;
43487;SDS011;29078;41.932;25.554;2023-02-26T04:21:23;18.10;;;7.75;;
43487;SDS011;29078;41.932;25.554;2023-02-26T04:23:49;17.58;;;7.68;;
43487;SDS011;29078;41.932;25.554;2023-02-26T04:26:14;13.65;;;6.68;;
43487;SDS011;29078;41.932;25.554;2023-02-26T04:28:40;16.38;;;6.75;;
43487;SDS011;29078;41.932;25.554;2023-02-26T04:31:05;16.92;;;7.20;;
43487;SDS011;29078;41.932;25.554;2023-02-26T04:33:31;20.13;;;7.53;;
43487;SDS011;29078;41.932;25.554;2023-02-26T04:35:57;16.67;;;7.70;;
43487;SDS011;29078;41.932;25.554;2023-02-26T04:38:23;17.25;;;7.05;;
43487;SDS011;29078;41.932;25.554;2023-02-26T04:40:49;16.20;;;7.75;;
43487;SDS011;29078;41.932;25.554;2023-02-26T04:43:15;15.38;;;7.20;;
43487;SDS011;29078;41.932;25.554;2023-02-26T04:45:43;19.20;;;7.57;;
43487;SDS011;29078;41.932;25.554;2023-02-26T04:48:09;19.50;;;7.60;;
43487;SDS011;29078;41.932;25.554;2023-02-26T04:50:35;17.67;;;7.20;;
43487;SDS011;29078;41.932;25.554;2023-02-26T04:53:00;18.65;;;7.85;;
43487;SDS011;29078;41.932;25.554;2023-02-26T04:55:25;21.25;;;7.68;;
43487;SDS011;29078;41.932;25.554;2023-02-26T04:57:51;19.65;;;8.43;;
43487;SDS011;29078;41.932;25.554;2023-02-26T05:00:17;17.55;;;7.57;;
43487;SDS011;29078;41.932;25.554;2023-02-26T05:02:43;18.00;;;8.35;;
43487;SDS011;29078;41.932;25.554;2023-02-26T05:05:09;20.10;;;8.15;;
43487;SDS011;29078;41.932;25.554;2023-02-26T05:07:34;21.20;;;7.75;;
43487;SDS011;29078;41.932;25.554;2023-02-26T05:10:00;16.40;;;7.28;;
43487;SDS011;29078;41.932;25.554;2023-02-26T05:12:25;26.27;;;9.48;;
43487;SDS011;29078;41.932;25.554;2023-02-26T05:14:51;19.30;;;8.32;;
43487;SDS011;29078;41.932;25.554;2023-02-26T05:17:16;22.17;;;8.38;;
43487;SDS011;29078;41.932;25.554;2023-02-26T05:19:41;21.27;;;8.13;;
43487;SDS011;29078;41.932;25.554;2023-02-26T05:22:07;21.45;;;8.80;;
43487;SDS011;29078;41.932;25.554;2023-02-26T05:24:32;17.10;;;8.63;;
43487;SDS011;29078;41.932;25.554;2023-02-26T05:26:59;19.42;;;8.60;;
43487;SDS011;29078;41.932;25.554;2023-02-26T05:29:24;21.48;;;8.23;;
43487;SDS011;29078;41.932;25.554;2023-02-26T05:31:50;22.92;;;8.40;;
43487;SDS011;29078;41.932;25.554;2023-02-26T05:34:15;16.25;;;7.60;;
43487;SDS011;29078;41.932;25.554;2023-02-26T05:36:40;20.75;;;8.05;;
43487;SDS011;29078;41.932;25.554;2023-02-26T05:39:06;19.38;;;8.80;;
43487;SDS011;29078;41.932;25.554;2023-02-26T05:41:33;25.20;;;8.35;;
43487;SDS011;29078;41.932;25.554;2023-02-26T05:43:59;21.67;;;8.98;;
43487;SDS011;29078;41.932;25.554;2023-02-26T05:46:24;18.80;;;7.88;;
43487;SDS011;29078;41.932;25.554;2023-02-26T05:48:50;20.55;;;8.95;;
43487;SDS011;29078;41.932;25.554;2023-02-26T05:51:15;22.85;;;8.70;;
43487;SDS011;29078;41.932;25.554;2023-02-26T05:53:40;23.67;;;8.60;;
43487;SDS011;29078;41.932;25.554;2023-02-26T05:56:06;16.95;;;7.88;;
43487;SDS011;29078;41.932;25.554;2023-02-26T05:58:31;21.00;;;8.55;;
43487;SDS011;29078;41.932;25.554;2023-02-26T06:00:58;21.58;;;8.18;;
43487;SDS011;29078;41.932;25.554;2023-02-26T06:03:24;21.48;;;7.97;;
43487;SDS011;29078;41.932;25.554;2023-02-26T06:05:49;20.65;;;7.25;;
43487;SDS011;29078;41.932;25.554;2023-02-26T06:08:15;20.75;;;8.50;;
43487;SDS011;29078;41.932;25.554;2023-02-26T06:10:42;22.55;;;8.00;;
43487;SDS011;29078;41.932;25.554;2023-02-26T06:13:07;21.02;;;7.57;;
43487;SDS011;29078;41.932;25.554;2023-02-26T06:15:33;17.58;;;8.00;;
43487;SDS011;29078;41.932;25.554;2023-02-26T06:17:58;19.08;;;8.48;;
43487;SDS011;29078;41.932;25.554;2023-02-26T06:20:24;22.77;;;8.70;;
43487;SDS011;29078;41.932;25.554;2023-02-26T06:22:49;15.73;;;7.50;;
43487;SDS011;29078;41.932;25.554;2023-02-26T06:25:15;16.67;;;7.53;;
43487;SDS011;29078;41.932;25.554;2023-02-26T06:27:41;21.45;;;8.00;;
43487;SDS011;29078;41.932;25.554;2023-02-26T06:30:07;19.48;;;7.63;;
43487;SDS011;29078;41.932;25.554;2023-02-26T06:32:33;21.67;;;7.85;;
43487;SDS011;29078;41.932;25.554;2023-02-26T06:34:58;21.92;;;8.55;;
43487;SDS011;29078;41.932;25.554;2023-02-26T06:37:24;20.65;;;7.95;;
43487;SDS011;29078;41.932;25.554;2023-02-26T06:39:49;15.95;;;7.45;;
43487;SDS011;29078;41.932;25.554;2023-02-26T06:42:15;22.95;;;8.13;;
43487;SDS011;29078;41.932;25.554;2023-02-26T06:44:40;17.42;;;7.13;;
43487;SDS011;29078;41.932;25.554;2023-02-26T06:47:05;21.75;;;7.68;;
43487;SDS011;29078;41.932;25.554;2023-02-26T06:49:31;20.98;;;7.50;;
43487;SDS011;29078;41.932;25.554;2023-02-26T06:51:57;16.48;;;6.75;;
43487;SDS011;29078;41.932;25.554;2023-02-26T06:54:22;19.50;;;7.47;;
43487;SDS011;29078;41.932;25.554;2023-02-26T06:56:48;21.25;;;7.55;;
43487;SDS011;29078;41.932;25.554;2023-02-26T06:59:13;17.80;;;7.18;;
43487;SDS011;29078;41.932;25.554;2023-02-26T07:01:39;21.73;;;7.53;;
43487;SDS011;29078;41.932;25.554;2023-02-26T07:04:05;20.00;;;8.18;;
43487;SDS011;29078;41.932;25.554;2023-02-26T07:06:30;19.75;;;7.15;;
43487;SDS011;29078;41.932;25.554;2023-02-26T07:08:56;15.48;;;7.07;;
43487;SDS011;29078;41.932;25.554;2023-02-26T07:11:22;16.35;;;7.78;;
43487;SDS011;29078;41.932;25.554;2023-02-26T07:13:47;19.70;;;7.00;;
43487;SDS011;29078;41.932;25.554;2023-02-26T07:16:13;16.52;;;6.88;;
43487;SDS011;29078;41.932;25.554;2023-02-26T07:18:38;18.33;;;7.28;;
43487;SDS011;29078;41.932;25.554;2023-02-26T07:21:04;28.88;;;8.10;;
43487;SDS011;29078;41.932;25.554;2023-02-26T07:23:29;17.50;;;8.00;;
43487;SDS011;29078;41.932;25.554;2023-02-26T07:25:55;18.40;;;6.78;;
43487;SDS011;29078;41.932;25.554;2023-02-26T07:28:21;19.40;;;7.90;;
43487;SDS011;29078;41.932;25.554;2023-02-26T07:30:47;16.40;;;6.75;;
43487;SDS011;29078;41.932;25.554;2023-02-26T07:33:13;18.33;;;6.63;;
43487;SDS011;29078;41.932;25.554;2023-02-26T07:35:38;16.65;;;7.20;;
43487;SDS011;29078;41.932;25.554;2023-02-26T07:38:04;24.20;;;7.35;;
43487;SDS011;29078;41.932;25.554;2023-02-26T07:40:30;19.88;;;7.30;;
43487;SDS011;29078;41.932;25.554;2023-02-26T07:42:56;15.98;;;5.90;;
43487;SDS011;29078;41.932;25.554;2023-02-26T07:45:21;17.65;;;6.72;;
43487;SDS011;29078;41.932;25.554;2023-02-26T07:47:48;18.83;;;6.32;;
43487;SDS011;29078;41.932;25.554;2023-02-26T07:50:15;13.48;;;6.13;;
43487;SDS011;29078;41.932;25.554;2023-02-26T07:52:40;19.90;;;7.38;;
43487;SDS011;29078;41.932;25.554;2023-02-26T07:55:06;18.08;;;6.40;;
43487;SDS011;29078;41.932;25.554;2023-02-26T07:57:32;19.75;;;7.05;;
43487;SDS011;29078;41.932;25.554;2023-02-26T07:59:58;15.35;;;6.72;;
43487;SDS011;29078;41.932;25.554;2023-02-26T08:02:23;19.55;;;7.00;;
43487;SDS011;29078;41.932;25.554;2023-02-26T08:04:49;18.75;;;6.40;;
43487;SDS011;29078;41.932;25.554;2023-02-26T08:07:15;15.65;;;6.50;;
43487;SDS011;29078;41.932;25.554;2023-02-26T08:09:40;18.35;;;6.82;;
43487;SDS011;29078;41.932;25.554;2023-02-26T08:12:05;21.98;;;6.68;;
43487;SDS011;29078;41.932;25.554;2023-02-26T08:14:31;14.38;;;5.85;;
43487;SDS011;29078;41.932;25.554;2023-02-26T08:16:56;20.92;;;7.00;;
43487;SDS011;29078;41.932;25.554;2023-02-26T08:19:22;18.85;;;7.40;;
43487;SDS011;29078;41.932;25.554;2023-02-26T08:21:47;19.40;;;6.45;;
43487;SDS011;29078;41.932;25.554;2023-02-26T08:24:13;17.23;;;6.55;;
43487;SDS011;29078;41.932;25.554;2023-02-26T08:26:38;14.18;;;5.90;;
43487;SDS011;29078;41.932;25.554;2023-02-26T08:29:04;22.00;;;6.43;;
43487;SDS011;29078;41.932;25.554;2023-02-26T08:31:30;17.80;;;5.63;;
43487;SDS011;29078;41.932;25.554;2023-02-26T08:33:58;20.52;;;5.75;;
43487;SDS011;29078;41.932;25.554;2023-02-26T08:36:23;18.27;;;5.57;;
43487;SDS011;29078;41.932;25.554;2023-02-26T08:38:49;16.10;;;5.68;;
43487;SDS011;29078;41.932;25.554;2023-02-26T08:41:14;17.48;;;6.05;;
43487;SDS011;29078;41.932;25.554;2023-02-26T08:43:40;18.23;;;6.13;;
43487;SDS011;29078;41.932;25.554;2023-02-26T08:46:05;16.73;;;6.40;;
43487;SDS011;29078;41.932;25.554;2023-02-26T08:48:31;18.58;;;6.32;;
43487;SDS011;29078;41.932;25.554;2023-02-26T08:50:56;14.35;;;5.88;;
43487;SDS011;29078;41.932;25.554;2023-02-26T08:53:22;16.67;;;6.13;;
43487;SDS011;29078;41.932;25.554;2023-02-26T08:55:48;21.77;;;6.18;;
43487;SDS011;29078;41.932;25.554;2023-02-26T08:58:14;16.45;;;5.97;;
43487;SDS011;29078;41.932;25.554;2023-02-26T09:00:40;19.77;;;6.13;;
43487;SDS011;29078;41.932;25.554;2023-02-26T09:03:05;17.90;;;6.05;;
43487;SDS011;29078;41.932;25.554;2023-02-26T09:05:30;15.30;;;4.75;;
43487;SDS011;29078;41.932;25.554;2023-02-26T09:07:56;16.48;;;5.07;;
43487;SDS011;29078;41.932;25.554;2023-02-26T09:10:21;15.93;;;5.32;;
43487;SDS011;29078;41.932;25.554;2023-02-26T09:12:47;15.15;;;5.35;;
43487;SDS011;29078;41.932;25.554;2023-02-26T09:15:12;12.45;;;5.28;;
43487;SDS011;29078;41.932;25.554;2023-02-26T09:17:39;14.52;;;5.78;;
43487;SDS011;29078;41.932;25.554;2023-02-26T09:20:05;19.27;;;5.85;;
43487;SDS011;29078;41.932;25.554;2023-02-26T09:22:31;24.27;;;5.72;;
43487;SDS011;29078;41.932;25.554;2023-02-26T09:24:57;14.23;;;5.30;;
43487;SDS011;29078;41.932;25.554;2023-02-26T09:27:22;15.68;;;5.35;;
43487;SDS011;29078;41.932;25.554;2023-02-26T09:29:47;21.60;;;6.43;;
43487;SDS011;29078;41.932;25.554;2023-02-26T09:32:13;19.45;;;5.68;;
43487;SDS011;29078;41.932;25.554;2023-02-26T09:34:38;17.85;;;5.78;;
43487;SDS011;29078;41.932;25.554;2023-02-26T09:37:04;19.75;;;5.13;;
43487;SDS011;29078;41.932;25.554;2023-02-26T09:39:31;16.58;;;5.53;;
43487;SDS011;29078;41.932;25.554;2023-02-26T09:41:57;15.18;;;5.20;;
43487;SDS011;29078;41.932;25.554;2023-02-26T09:44:32;18.88;;;5.68;;
43487;SDS011;29078;41.932;25.554;2023-02-26T09:52:46;14.52;;;6.00;;
43487;SDS011;29078;41.932;25.554;2023-02-26T09:55:29;14.50;;;6.78;;
43487;SDS011;29078;41.932;25.554;2023-02-26T09:57:59;17.50;;;6.05;;
43487;SDS011;29078;41.932;25.554;2023-02-26T10:00:34;15.30;;;6.13;;
43487;SDS011;29078;41.932;25.554;2023-02-26T10:03:14;15.98;;;5.95;;
43487;SDS011;29078;41.932;25.554;2023-02-26T10:08:35;18.00;;;5.72;;
43487;SDS011;29078;41.932;25.554;2023-02-26T10:11:11;21.83;;;6.28;;
43487;SDS011;29078;41.932;25.554;2023-02-26T10:13:46;20.80;;;6.32;;
43487;SDS011;29078;41.932;25.554;2023-02-26T10:16:21;20.85;;;5.43;;
43487;SDS011;29078;41.932;25.554;2023-02-26T10:18:50;14.88;;;5.95;;
43487;SDS011;29078;41.932;25.554;2023-02-26T10:22:03;21.25;;;6.13;;
43487;SDS011;29078;41.932;25.554;2023-02-26T10:24:30;14.95;;;5.43;;
43487;SDS011;29078;41.932;25.554;2023-02-26T10:27:14;15.98;;;4.82;;
43487;SDS011;29078;41.932;25.554;2023-02-26T10:29:55;25.45;;;6.47;;
43487;SDS011;29078;41.932;25.554;2023-02-26T10:35:02;15.43;;;5.47;;
43487;SDS011;29078;41.932;25.554;2023-02-26T10:37:56;20.85;;;6.03;;
43487;SDS011;29078;41.932;25.554;2023-02-26T10:46:09;17.73;;;5.65;;
43487;SDS011;29078;41.932;25.554;2023-02-26T10:52:10;19.17;;;6.32;;
43487;SDS011;29078;41.932;25.554;2023-02-26T10:54:40;16.48;;;5.78;;
43487;SDS011;29078;41.932;25.554;2023-02-26T10:57:18;16.15;;;5.28;;
43487;SDS011;29078;41.932;25.554;2023-02-26T10:59:48;16.48;;;5.25;;
43487;SDS011;29078;41.932;25.554;2023-02-26T11:02:25;16.80;;;5.10;;
43487;SDS011;29078;41.932;25.554;2023-02-26T11:05:02;19.38;;;5.68;;
43487;SDS011;29078;41.932;25.554;2023-02-26T11:07:29;17.67;;;5.63;;
43487;SDS011;29078;41.932;25.554;2023-02-26T11:09:56;16.63;;;5.63;;
43487;SDS011;29078;41.932;25.554;2023-02-26T11:12:23;18.50;;;5.90;;
43487;SDS011;29078;41.932;25.554;2023-02-26T11:14:50;18.48;;;5.63;;
43487;SDS011;29078;41.932;25.554;2023-02-26T11:17:18;15.80;;;5.05;;
43487;SDS011;29078;41.932;25.554;2023-02-26T11:19:56;14.40;;;5.55;;
43487;SDS011;29078;41.932;25.554;2023-02-26T11:22:26;19.48;;;7.88;;
43487;SDS011;29078;41.932;25.554;2023-02-26T11:24:56;19.98;;;7.35;;
43487;SDS011;29078;41.932;25.554;2023-02-26T11:27:24;18.52;;;6.60;;
43487;SDS011;29078;41.932;25.554;2023-02-26T11:29:58;20.83;;;6.75;;
43487;SDS011;29078;41.932;25.554;2023-02-26T11:32:34;20.15;;;6.30;;
43487;SDS011;29078;41.932;25.554;2023-02-26T11:35:01;23.35;;;6.18;;
43487;SDS011;29078;41.932;25.554;2023-02-26T11:37:28;18.13;;;6.50;;
43487;SDS011;29078;41.932;25.554;2023-02-26T11:40:03;14.07;;;6.10;;
43487;SDS011;29078;41.932;25.554;2023-02-26T11:42:43;18.02;;;6.07;;
43487;SDS011;29078;41.932;25.554;2023-02-26T11:45:13;14.45;;;5.95;;
43487;SDS011;29078;41.932;25.554;2023-02-26T11:47:42;16.23;;;5.78;;
43487;SDS011;29078;41.932;25.554;2023-02-26T11:50:16;18.05;;;6.47;;
43487;SDS011;29078;41.932;25.554;2023-02-26T11:52:45;15.20;;;6.13;;
43487;SDS011;29078;41.932;25.554;2023-02-26T11:55:31;18.38;;;6.30;;
43487;SDS011;29078;41.932;25.554;2023-02-26T11:58:01;17.05;;;6.20;;
43487;SDS011;29078;41.932;25.554;2023-02-26T12:00:38;19.42;;;6.05;;
43487;SDS011;29078;41.932;25.554;2023-02-26T12:03:14;14.88;;;5.63;;
43487;SDS011;29078;41.932;25.554;2023-02-26T12:05:41;19.10;;;6.05;;
43487;SDS011;29078;41.932;25.554;2023-02-26T12:08:13;22.90;;;6.47;;
43487;SDS011;29078;41.932;25.554;2023-02-26T12:19:35;18.35;;;6.40;;
43487;SDS011;29078;41.932;25.554;2023-02-26T12:22:20;19.75;;;6.57;;
43487;SDS011;29078;41.932;25.554;2023-02-26T12:33:27;16.92;;;6.50;;
43487;SDS011;29078;41.932;25.554;2023-02-26T12:36:06;17.35;;;5.60;;
43487;SDS011;29078;41.932;25.554;2023-02-26T12:38:51;16.48;;;6.13;;
43487;SDS011;29078;41.932;25.554;2023-02-26T12:41:42;16.15;;;6.22;;
43487;SDS011;29078;41.932;25.554;2023-02-26T12:47:06;18.75;;;6.20;;
43487;SDS011;29078;41.932;25.554;2023-02-26T12:49:42;24.77;;;7.47;;
43487;SDS011;29078;41.932;25.554;2023-02-26T12:52:32;16.50;;;5.72;;
43487;SDS011;29078;41.932;25.554;2023-02-26T13:09:02;11.70;;;5.72;;
43487;SDS011;29078;41.932;25.554;2023-02-26T13:14:17;19.00;;;5.75;;
43487;SDS011;29078;41.932;25.554;2023-02-26T13:19:56;15.68;;;6.00;;
43487;SDS011;29078;41.932;25.554;2023-02-26T13:22:30;20.10;;;6.38;;
43487;SDS011;29078;41.932;25.554;2023-02-26T13:25:05;13.88;;;6.00;;
43487;SDS011;29078;41.932;25.554;2023-02-26T13:27:42;19.38;;;6.60;;
43487;SDS011;29078;41.932;25.554;2023-02-26T13:32:44;18.35;;;6.50;;
43487;SDS011;29078;41.932;25.554;2023-02-26T13:35:34;16.33;;;6.53;;
43487;SDS011;29078;41.932;25.554;2023-02-26T13:38:05;20.23;;;6.38;;
43487;SDS011;29078;41.932;25.554;2023-02-26T13:40:50;16.70;;;5.97;;
43487;SDS011;29078;41.932;25.554;2023-02-26T13:49:04;17.90;;;5.75;;
43487;SDS011;29078;41.932;25.554;2023-02-26T13:51:45;15.27;;;6.10;;
43487;SDS011;29078;41.932;25.554;2023-02-26T14:01:59;14.50;;;5.93;;
43487;SDS011;29078;41.932;25.554;2023-02-26T14:04:48;16.08;;;7.03;;
43487;SDS011;29078;41.932;25.554;2023-02-26T14:16:26;17.02;;;6.40;;
43487;SDS011;29078;41.932;25.554;2023-02-26T14:18:53;17.17;;;5.82;;
43487;SDS011;29078;41.932;25.554;2023-02-26T14:35:33;18.30;;;5.40;;
43487;SDS011;29078;41.932;25.554;2023-02-26T14:40:54;17.75;;;6.35;;
43487;SDS011;29078;41.932;25.554;2023-02-26T14:43:41;16.08;;;5.82;;
43487;SDS011;29078;41.932;25.554;2023-02-26T14:46:10;21.73;;;5.88;;
43487;SDS011;29078;41.932;25.554;2023-02-26T14:48:36;19.30;;;6.13;;
43487;SDS011;29078;41.932;25.554;2023-02-26T14:56:57;22.67;;;6.35;;
43487;SDS011;29078;41.932;25.554;2023-02-26T14:59:49;16.08;;;5.30;;
43487;SDS011;29078;41.932;25.554;2023-02-26T15:02:27;21.88;;;5.95;;
43487;SDS011;29078;41.932;25.554;2023-02-26T15:10:33;23.25;;;6.32;;
43487;SDS011;29078;41.932;25.554;2023-02-26T15:15:56;17.20;;;5.32;;
43487;SDS011;29078;41.932;25.554;2023-02-26T15:21:12;13.77;;;5.35;;
43487;SDS011;29078;41.932;25.554;2023-02-26T15:23:46;16.25;;;5.70;;
43487;SDS011;29078;41.932;25.554;2023-02-26T15:26:20;16.17;;;5.95;;
43487;SDS011;29078;41.932;25.554;2023-02-26T15:28:50;18.73;;;5.60;;
43487;SDS011;29078;41.932;25.554;2023-02-26T15:31:18;16.55;;;6.05;;
43487;SDS011;29078;41.932;25.554;2023-02-26T15:33:48;15.77;;;6.07;;
43487;SDS011;29078;41.932;25.554;2023-02-26T15:36:15;14.73;;;5.38;;
43487;SDS011;29078;41.932;25.554;2023-02-26T15:38:47;19.90;;;6.05;;
43487;SDS011;29078;41.932;25.554;2023-02-26T15:41:14;15.68;;;5.85;;
43487;SDS011;29078;41.932;25.554;2023-02-26T15:43:49;25.02;;;9.10;;
43487;SDS011;29078;41.932;25.554;2023-02-26T15:46:18;22.08;;;7.43;;
43487;SDS011;29078;41.932;25.554;2023-02-26T15:48:51;17.15;;;5.95;;
43487;SDS011;29078;41.932;25.554;2023-02-26T15:51:18;22.33;;;6.03;;
43487;SDS011;29078;41.932;25.554;2023-02-26T15:53:46;15.63;;;5.97;;
43487;SDS011;29078;41.932;25.554;2023-02-26T15:56:21;19.58;;;6.80;;
43487;SDS011;29078;41.932;25.554;2023-02-26T15:59:32;14.30;;;5.38;;
43487;SDS011;29078;41.932;25.554;2023-02-26T16:01:41;20.63;;;6.28;;
43487;SDS011;29078;41.932;25.554;2023-02-26T16:04:11;17.08;;;6.38;;
43487;SDS011;29078;41.932;25.554;2023-02-26T16:06:45;18.40;;;6.03;;
43487;SDS011;29078;41.932;25.554;2023-02-26T16:09:17;19.83;;;6.43;;
43487;SDS011;29078;41.932;25.554;2023-02-26T16:11:44;14.57;;;5.65;;
43487;SDS011;29078;41.932;25.554;2023-02-26T16:14:14;21.08;;;6.75;;
43487;SDS011;29078;41.932;25.554;2023-02-26T16:16:46;19.35;;;6.13;;
43487;SDS011;29078;41.932;25.554;2023-02-26T16:19:14;21.25;;;7.75;;
43487;SDS011;29078;41.932;25.554;2023-02-26T16:21:42;16.95;;;6.20;;
43487;SDS011;29078;41.932;25.554;2023-02-26T16:24:14;18.38;;;6.20;;
43487;SDS011;29078;41.932;25.554;2023-02-26T16:26:49;20.17;;;6.95;;
43487;SDS011;29078;41.932;25.554;2023-02-26T16:29:22;20.05;;;6.68;;
43487;SDS011;29078;41.932;25.554;2023-02-26T16:31:53;18.02;;;7.22;;
43487;SDS011;29078;41.932;25.554;2023-02-26T16:36:45;18.60;;;6.97;;
43487;SDS011;29078;41.932;25.554;2023-02-26T16:39:17;16.13;;;5.55;;
43487;SDS011;29078;41.932;25.554;2023-02-26T16:41:47;19.77;;;6.97;;
43487;SDS011;29078;41.932;25.554;2023-02-26T16:46:57;24.48;;;9.35;;
43487;SDS011;29078;41.932;25.554;2023-02-26T16:49:26;18.83;;;6.80;;
43487;SDS011;29078;41.932;25.554;2023-02-26T16:52:00;20.33;;;6.88;;
43487;SDS011;29078;41.932;25.554;2023-02-26T16:54:28;22.90;;;7.20;;
43487;SDS011;29078;41.932;25.554;2023-02-26T16:59:31;19.65;;;8.80;;
43487;SDS011;29078;41.932;25.554;2023-02-26T17:02:13;13.32;;;5.63;;
43487;SDS011;29078;41.932;25.554;2023-02-26T17:04:47;18.77;;;7.25;;
43487;SDS011;29078;41.932;25.554;2023-02-26T17:07:29;15.30;;;6.00;;
43487;SDS011;29078;41.932;25.554;2023-02-26T17:10:20;16.48;;;6.70;;
43487;SDS011;29078;41.932;25.554;2023-02-26T17:12:48;19.73;;;8.40;;
43487;SDS011;29078;41.932;25.554;2023-02-26T17:15:32;16.30;;;6.75;;
43487;SDS011;29078;41.932;25.554;2023-02-26T17:17:59;19.02;;;6.50;;
43487;SDS011;29078;41.932;25.554;2023-02-26T17:20:25;20.48;;;7.10;;
43487;SDS011;29078;41.932;25.554;2023-02-26T17:22:53;18.15;;;6.55;;
43487;SDS011;29078;41.932;25.554;2023-02-26T17:25:20;16.88;;;6.95;;
43487;SDS011;29078;41.932;25.554;2023-02-26T17:27:46;20.50;;;8.23;;
43487;SDS011;29078;41.932;25.554;2023-02-26T17:30:15;18.88;;;6.55;;
43487;SDS011;29078;41.932;25.554;2023-02-26T17:35:13;17.60;;;6.18;;
43487;SDS011;29078;41.932;25.554;2023-02-26T17:37:40;16.63;;;5.97;;
43487;SDS011;29078;41.932;25.554;2023-02-26T17:40:16;20.25;;;7.32;;
43487;SDS011;29078;41.932;25.554;2023-02-26T17:42:48;15.52;;;6.50;;